Main page
METAR-TAF:

METAR-TAF

Airports :

Chan Gurney Municipal Airport

Yankton, South Dakota, United States

latitude: 42-55N, longitude: 097-23W, elevation: 1305 ft

Current weather observation

The report was made 58 minutes ago, at 00:56 UTC
Wind 8 mph from the South/Southeast
Temperature 66°F
Humidity 60%
Pressure 29.67 in. Hg
Visibility: 10 miles
Clear sky

METAR: KYKN 070056Z AUTO 16007KT 10SM CLR 19/11 A2967 RMK AO2 SLP057 T01940111

Time: 20:54 (01:54 UTC)


TAF: missing

Weather observations and forecasts of more than 4000 airports (METAR and TAF reports).

The available stations are represented by yellow and red dots on the map.

Hover mouse over dot to see the name of the station.

Then click to see weather observations and forecasts.

To change the map : click on the green buttons with a black cross to zoom in, on the green button with a dash to zoom out, or on the green arrows for adjacent maps.


METAR-TAF: